createdAt,value
2022-08-04T00:04:09.859Z,62.47
2022-08-04T00:09:35.909Z,62.59
2022-08-04T00:14:36.303Z,62.93
2022-08-04T00:19:38.053Z,62.75
2022-08-04T00:24:36.298Z,62.73
2022-08-04T00:29:34.881Z,62.89
2022-08-04T00:34:32.028Z,63.17
2022-08-04T00:39:30.151Z,63.16
2022-08-04T00:44:35.673Z,63.38
2022-08-04T00:49:57.336Z,63.65
2022-08-04T00:55:05.408Z,63.56
2022-08-04T01:00:11.840Z,63.91
2022-08-04T01:05:27.300Z,63.95
2022-08-04T01:10:48.470Z,63.86
2022-08-04T01:16:00.549Z,63.44
2022-08-04T01:21:19.237Z,64.01
2022-08-04T01:26:53.713Z,64.09
2022-08-04T01:32:02.483Z,64.12
2022-08-04T01:37:08.251Z,64.45
2022-08-04T01:42:06.078Z,64.45
2022-08-04T01:47:07.868Z,64.34
2022-08-04T01:52:05.905Z,64.75
2022-08-04T01:57:37.674Z,64.51
2022-08-04T02:02:25.159Z,64.70
2022-08-04T02:07:36.778Z,65.09
2022-08-04T02:13:03.913Z,65.25
2022-08-04T02:18:12.655Z,64.89
2022-08-04T02:23:14.384Z,65.26
2022-08-04T02:28:26.395Z,65.23
2022-08-04T02:33:42.807Z,65.68
2022-08-04T02:38:39.852Z,65.00
2022-08-04T02:43:51.811Z,65.38
2022-08-04T02:48:50.766Z,65.89
2022-08-04T02:53:53.111Z,66.21
2022-08-04T02:58:53.044Z,66.38
2022-08-04T03:04:24.923Z,66.48
2022-08-04T03:09:51.651Z,66.17
2022-08-04T03:15:09.689Z,66.21
2022-08-04T03:20:44.384Z,66.55
2022-08-04T03:26:25.145Z,66.43
2022-08-04T03:31:30.429Z,66.87
2022-08-04T03:36:44.448Z,66.87
2022-08-04T03:42:03.266Z,67.17
2022-08-04T03:47:18.898Z,66.98
2022-08-04T03:52:55.771Z,67.13
2022-08-04T03:58:28.489Z,67.04
2022-08-04T04:03:45.614Z,67.57
2022-08-04T04:08:45.581Z,67.22
2022-08-04T04:14:35.646Z,67.33
2022-08-04T04:19:37.896Z,67.46
2022-08-04T04:24:34.595Z,67.55
2022-08-04T04:30:04.384Z,67.85
2022-08-04T04:35:27.269Z,67.46
2022-08-04T04:41:02.937Z,67.72
2022-08-04T04:46:24.963Z,67.73
2022-08-04T04:51:34.095Z,67.41
2022-08-04T04:56:38.724Z,67.58
2022-08-04T05:01:53.166Z,67.49
2022-08-04T05:07:07.614Z,67.14
2022-08-04T05:14:37.626Z,66.92
2022-08-04T05:19:08.383Z,66.86
2022-08-04T05:30:12.101Z,66.41
2022-08-04T05:35:12.853Z,66.19
2022-08-04T05:40:11.171Z,66.06
2022-08-04T05:45:09.478Z,65.63
2022-08-04T05:50:07.199Z,65.60
2022-08-04T05:55:04.972Z,65.56
2022-08-04T06:00:14.828Z,65.39
2022-08-04T06:05:25.420Z,65.28
2022-08-04T06:10:29.250Z,64.86
2022-08-04T06:20:39.637Z,62.72
2022-08-04T06:25:50.465Z,61.64
2022-08-04T06:30:49.829Z,60.44
2022-08-04T06:35:46.654Z,60.59
2022-08-04T06:40:43.685Z,59.95
2022-08-04T06:45:41.887Z,60.33
2022-08-04T06:51:24.662Z,60.10
2022-08-04T06:55:57.518Z,59.70
2022-08-04T07:00:54.977Z,59.29
2022-08-04T07:05:52.270Z,59.56
2022-08-04T07:10:51.800Z,59.49
2022-08-04T07:15:49.054Z,59.62
2022-08-04T07:21:39.201Z,58.68
2022-08-04T07:27:07.059Z,58.89
2022-08-04T07:32:16.339Z,58.57
2022-08-04T07:37:44.659Z,58.21
2022-08-04T07:43:36.486Z,58.03
2022-08-04T07:49:54.369Z,57.81
2022-08-04T07:54:45.561Z,57.84
2022-08-04T07:59:50.269Z,57.56
2022-08-04T08:05:04.172Z,57.55
2022-08-04T08:22:21.101Z,56.45
2022-08-04T08:34:10.975Z,54.80
2022-08-04T08:45:54.922Z,54.06
2022-08-04T08:51:31.997Z,53.26
2022-08-04T08:56:45.951Z,52.12
2022-08-04T09:02:25.340Z,51.49
2022-08-04T09:07:22.048Z,51.65
2022-08-04T09:12:25.875Z,49.97
2022-08-04T09:17:29.501Z,49.87
2022-08-04T09:22:39.989Z,49.95
2022-08-04T09:27:48.260Z,49.18
2022-08-04T09:33:44.621Z,48.21
2022-08-04T09:39:11.178Z,46.52
2022-08-04T09:44:50.316Z,46.37
2022-08-04T09:49:52.677Z,45.21
2022-08-04T09:55:26.984Z,44.82
2022-08-04T10:00:41.396Z,45.25
2022-08-04T10:06:06.801Z,45.08
2022-08-04T10:11:56.474Z,45.24
2022-08-04T10:17:26.308Z,44.39
2022-08-04T10:22:37.111Z,44.36
2022-08-04T10:27:45.416Z,44.03
2022-08-04T10:32:52.192Z,44.19
2022-08-04T10:38:03.719Z,44.11
2022-08-04T10:43:27.636Z,44.48
2022-08-04T10:48:47.224Z,43.11
2022-08-04T10:53:45.492Z,43.08
2022-08-04T10:58:55.459Z,42.28
2022-08-04T11:03:56.783Z,41.93
2022-08-04T11:08:56.029Z,41.64
2022-08-04T11:14:13.231Z,40.55
2022-08-04T11:19:43.030Z,40.49
2022-08-04T11:24:46.540Z,40.38
2022-08-04T11:29:53.518Z,39.66
2022-08-04T11:34:53.259Z,38.51
2022-08-04T11:40:12.042Z,37.93
2022-08-04T11:45:13.176Z,37.99
2022-08-04T11:50:41.462Z,38.32
2022-08-04T11:56:07.737Z,38.14
2022-08-04T12:01:23.221Z,37.57
2022-08-04T12:06:33.465Z,37.52
2022-08-04T12:11:54.565Z,36.27
2022-08-04T12:17:01.565Z,36.45
2022-08-04T12:22:01.779Z,35.61
2022-08-04T12:27:04.943Z,35.59
2022-08-04T12:32:12.644Z,34.54
2022-08-04T12:37:22.266Z,34.45
2022-08-04T12:42:34.376Z,34.41
2022-08-04T12:47:31.259Z,34.67
2022-08-04T12:52:51.584Z,34.18
2022-08-04T12:57:45.438Z,34.28
2022-08-04T13:02:43.881Z,34.05
2022-08-04T13:07:44.906Z,33.91
2022-08-04T13:13:02.563Z,33.77
2022-08-04T13:18:00.024Z,34.03
2022-08-04T13:23:09.084Z,33.75
2022-08-04T13:28:06.722Z,33.89
2022-08-04T13:33:04.616Z,33.76
2022-08-04T13:38:02.025Z,33.64
2022-08-04T13:42:58.766Z,33.84
2022-08-04T13:47:59.027Z,33.75
2022-08-04T13:53:12.236Z,33.65
2022-08-04T13:58:22.179Z,33.68
2022-08-04T14:03:53.913Z,33.81
2022-08-04T14:08:55.641Z,33.40
2022-08-04T14:13:52.294Z,34.01
2022-08-04T14:19:01.697Z,33.85
2022-08-04T14:24:00.618Z,33.17
2022-08-04T14:29:27.231Z,33.41
2022-08-04T14:34:26.842Z,33.50
2022-08-04T14:39:38.487Z,33.36
2022-08-04T14:44:53.957Z,33.40
2022-08-04T14:49:55.203Z,33.32
2022-08-04T14:54:51.750Z,33.78
2022-08-04T14:59:59.421Z,35.69
2022-08-04T15:04:59.939Z,36.83
2022-08-04T15:10:16.727Z,38.57
2022-08-04T15:15:35.221Z,41.12
2022-08-04T15:20:31.712Z,44.19
2022-08-04T15:25:28.340Z,45.52
2022-08-04T15:30:24.855Z,46.58
2022-08-04T15:35:32.006Z,47.21
2022-08-04T15:41:04.019Z,47.08
2022-08-04T15:46:41.109Z,47.20
2022-08-04T15:51:28.329Z,46.72
2022-08-04T15:56:28.850Z,46.66
2022-08-04T16:01:29.947Z,47.26
2022-08-04T16:06:27.484Z,48.54
2022-08-04T16:11:31.523Z,49.37
2022-08-04T16:16:57.380Z,50.54
2022-08-04T16:21:56.160Z,51.80
2022-08-04T16:26:57.488Z,52.97
2022-08-04T16:32:06.845Z,53.79
2022-08-04T16:37:08.947Z,53.76
2022-08-04T16:42:30.328Z,53.87
2022-08-04T16:47:48.666Z,54.25
2022-08-04T16:52:46.802Z,54.18
2022-08-04T16:57:47.231Z,55.14
2022-08-04T17:02:47.360Z,54.77
2022-08-04T17:08:28.009Z,54.08
2022-08-04T17:14:03.552Z,55.01
2022-08-04T17:18:40.481Z,53.96
2022-08-04T17:24:14.247Z,54.92
2022-08-04T17:29:01.555Z,55.10
2022-08-04T17:34:00.628Z,55.66
2022-08-04T17:39:00.079Z,55.63
2022-08-04T17:44:03.875Z,55.84
2022-08-04T17:49:06.946Z,55.92
2022-08-04T17:54:04.807Z,56.02
2022-08-04T17:59:52.273Z,56.08
2022-08-04T18:04:39.188Z,56.32
2022-08-04T18:10:27.463Z,56.48
2022-08-04T18:20:45.780Z,56.56
2022-08-04T18:31:04.115Z,56.92
2022-08-04T18:36:33.379Z,56.93
2022-08-04T18:41:17.331Z,57.07
2022-08-04T18:46:15.267Z,57.00
2022-08-04T18:51:23.651Z,57.17
2022-08-04T18:56:29.745Z,57.21
2022-08-04T19:01:30.001Z,57.24
2022-08-04T19:06:45.367Z,57.49
2022-08-04T19:11:55.301Z,57.42
2022-08-04T19:16:52.748Z,57.54
2022-08-04T19:21:59.705Z,57.83
2022-08-04T19:26:58.844Z,58.11
2022-08-04T19:31:55.351Z,57.94
2022-08-04T19:36:52.555Z,58.49
2022-08-04T19:42:05.662Z,58.28
2022-08-04T19:48:17.827Z,58.81
2022-08-04T19:57:37.991Z,58.40
2022-08-04T20:02:37.985Z,58.69
2022-08-04T20:07:34.653Z,58.54
2022-08-04T20:12:31.769Z,58.57
2022-08-04T20:18:06.852Z,58.58
2022-08-04T20:22:52.593Z,58.56
2022-08-04T20:28:00.258Z,58.66
2022-08-04T20:32:58.038Z,58.52
2022-08-04T20:43:14.467Z,58.52
2022-08-04T20:48:12.422Z,58.96
2022-08-04T20:53:16.753Z,59.06
2022-08-04T20:58:13.727Z,59.24
2022-08-04T21:03:10.438Z,59.39
2022-08-04T21:08:07.137Z,59.75
2022-08-04T21:13:03.741Z,59.87
2022-08-04T21:18:04.542Z,60.14
2022-08-04T21:23:02.169Z,60.17
2022-08-04T21:28:04.296Z,60.57
2022-08-04T21:33:01.243Z,61.08
2022-08-04T21:38:01.373Z,61.39
2022-08-04T21:42:59.334Z,61.69
2022-08-04T21:47:59.508Z,61.93
2022-08-04T21:52:56.051Z,61.73
2022-08-04T21:57:54.093Z,62.15
2022-08-04T22:02:53.546Z,62.57
2022-08-04T22:07:51.925Z,62.79
2022-08-04T22:12:52.087Z,62.66
2022-08-04T22:17:48.883Z,62.89
2022-08-04T22:22:53.577Z,63.25
2022-08-04T22:28:07.820Z,63.22
2022-08-04T22:33:07.489Z,63.76
2022-08-04T22:38:07.365Z,63.59
2022-08-04T22:43:31.833Z,63.71
2022-08-04T22:48:32.005Z,63.99
2022-08-04T22:53:29.040Z,63.66
2022-08-04T22:58:28.649Z,64.08
2022-08-04T23:03:37.792Z,63.97
2022-08-04T23:08:36.378Z,64.00
2022-08-04T23:13:33.080Z,64.41
2022-08-04T23:18:29.628Z,64.29
2022-08-04T23:23:26.209Z,64.44
2022-08-04T23:28:24.388Z,64.36
2022-08-04T23:33:20.956Z,64.38
2022-08-04T23:38:31.331Z,64.55
2022-08-04T23:43:28.726Z,65.02
2022-08-04T23:48:45.581Z,64.34
2022-08-04T23:54:02.526Z,64.21
2022-08-04T23:59:00.560Z,64.10
